createdAt,value
2018-07-25T00:00:07.390Z,20.20
2018-07-25T00:02:34.818Z,20.20
2018-07-25T00:05:02.300Z,19.80
2018-07-25T00:07:29.745Z,19.60
2018-07-25T00:09:57.185Z,20.00
2018-07-25T00:12:24.659Z,20.20
2018-07-25T00:14:52.093Z,19.60
2018-07-25T00:17:19.674Z,20.20
2018-07-25T00:19:47.030Z,21.20
2018-07-25T00:22:14.478Z,19.20
2018-07-25T00:24:41.986Z,19.60
2018-07-25T00:27:09.390Z,19.80
2018-07-25T00:29:36.843Z,21.40
2018-07-25T00:32:04.328Z,20.00
2018-07-25T00:34:31.809Z,19.60
2018-07-25T00:36:59.245Z,21.60
2018-07-25T00:39:26.665Z,20.00
2018-07-25T00:41:54.149Z,20.60
2018-07-25T00:44:21.661Z,22.40
2018-07-25T00:46:49.042Z,20.80
2018-07-25T00:49:17.529Z,18.80
2018-07-25T00:51:44.999Z,20.00
2018-07-25T00:54:12.483Z,20.00
2018-07-25T00:56:39.907Z,21.80
2018-07-25T00:59:07.537Z,20.20
2018-07-25T01:01:35.066Z,19.60
2018-07-25T01:04:02.471Z,19.40
2018-07-25T01:06:30.022Z,19.00
2018-07-25T01:08:57.413Z,19.20
2018-07-25T01:11:24.876Z,21.20
2018-07-25T01:13:53.021Z,20.00
2018-07-25T01:16:20.376Z,20.20
2018-07-25T01:18:47.850Z,21.60
2018-07-25T01:21:15.302Z,21.60
2018-07-25T01:23:42.765Z,19.40
2018-07-25T01:26:10.218Z,20.00
2018-07-25T01:28:37.665Z,21.40
2018-07-25T01:31:05.151Z,20.00
2018-07-25T01:33:32.593Z,20.40
2018-07-25T01:36:00.040Z,20.40
2018-07-25T01:38:27.515Z,21.80
2018-07-25T01:40:54.958Z,21.60
2018-07-25T01:43:22.498Z,21.60
2018-07-25T01:45:49.862Z,20.00
2018-07-25T01:48:17.395Z,19.80
2018-07-25T01:50:44.810Z,22.60
2018-07-25T01:53:12.225Z,21.20
2018-07-25T01:55:39.701Z,22.60
2018-07-25T01:58:07.162Z,23.40
2018-07-25T02:00:34.653Z,23.00
2018-07-25T02:03:02.114Z,21.20
2018-07-25T02:05:29.565Z,23.60
2018-07-25T02:07:57.026Z,20.80
2018-07-25T02:10:24.461Z,20.40
2018-07-25T02:12:51.933Z,20.60
2018-07-25T02:15:19.377Z,22.00
2018-07-25T02:17:46.868Z,22.60
2018-07-25T02:20:14.289Z,21.00
2018-07-25T02:22:41.749Z,19.20
2018-07-25T02:25:09.238Z,21.20
2018-07-25T02:27:36.660Z,22.40
2018-07-25T02:30:04.787Z,21.20
2018-07-25T02:32:32.194Z,23.60
2018-07-25T02:34:59.650Z,20.20
2018-07-25T02:37:27.229Z,20.40
2018-07-25T02:39:54.674Z,22.00
2018-07-25T02:42:22.233Z,23.80
2018-07-25T02:44:49.633Z,24.00
2018-07-25T02:47:17.043Z,22.60
2018-07-25T02:49:44.536Z,22.80
2018-07-25T02:52:11.998Z,23.60
2018-07-25T02:54:39.429Z,23.40
2018-07-25T02:57:06.870Z,22.80
2018-07-25T02:59:34.349Z,23.40
2018-07-25T03:02:01.812Z,22.40
2018-07-25T03:04:29.266Z,22.40
2018-07-25T03:06:56.735Z,20.20
2018-07-25T03:09:24.158Z,20.60
2018-07-25T03:11:51.612Z,22.40
2018-07-25T03:14:19.085Z,21.40
2018-07-25T03:16:46.549Z,21.00
2018-07-25T03:19:14.035Z,22.40
2018-07-25T03:21:41.382Z,24.00
2018-07-25T03:24:08.905Z,22.60
2018-07-25T03:26:36.373Z,22.60
2018-07-25T03:29:03.838Z,22.40
2018-07-25T03:31:31.401Z,23.80
2018-07-25T03:33:58.743Z,23.40
2018-07-25T03:36:26.217Z,23.40
2018-07-25T03:38:53.729Z,23.20
2018-07-25T03:41:21.142Z,22.00
2018-07-25T03:43:48.572Z,19.00
2018-07-25T03:46:16.013Z,20.00
2018-07-25T03:48:43.501Z,19.80
2018-07-25T03:51:10.951Z,20.20
2018-07-25T03:53:38.418Z,24.00
2018-07-25T03:56:05.874Z,24.00
2018-07-25T03:58:33.363Z,20.20
2018-07-25T04:01:00.918Z,20.20
2018-07-25T04:03:28.313Z,22.40
2018-07-25T04:05:55.790Z,20.60
2018-07-25T04:08:23.314Z,20.20
2018-07-25T04:10:50.706Z,22.20
2018-07-25T04:13:18.153Z,21.00
2018-07-25T04:15:45.626Z,23.20
2018-07-25T04:18:13.141Z,21.20
2018-07-25T04:20:40.543Z,22.20
2018-07-25T04:23:07.993Z,23.00
2018-07-25T04:25:35.486Z,19.80
2018-07-25T04:28:03.001Z,22.00
2018-07-25T04:30:30.425Z,24.20
2018-07-25T04:32:57.981Z,22.80
2018-07-25T04:35:25.387Z,21.60
2018-07-25T04:37:52.848Z,22.20
2018-07-25T04:40:20.302Z,21.80
2018-07-25T04:42:47.775Z,22.60
2018-07-25T04:45:15.220Z,22.00
2018-07-25T04:47:42.709Z,24.20
2018-07-25T04:50:10.135Z,22.40
2018-07-25T04:52:37.601Z,19.20
2018-07-25T04:55:05.035Z,23.00
2018-07-25T04:57:32.497Z,23.60
2018-07-25T04:59:59.945Z,22.80
2018-07-25T05:02:27.447Z,22.00
2018-07-25T05:04:54.889Z,23.00
2018-07-25T05:07:22.331Z,21.80
2018-07-25T05:09:49.784Z,23.00
2018-07-25T05:12:17.250Z,20.20
2018-07-25T05:14:44.686Z,24.20
2018-07-25T05:17:12.154Z,22.00
2018-07-25T05:19:39.634Z,22.00
2018-07-25T05:22:07.060Z,22.00
2018-07-25T05:24:34.505Z,19.20
2018-07-25T05:27:01.988Z,23.00
2018-07-25T05:29:29.429Z,22.80
2018-07-25T05:31:56.907Z,22.80
2018-07-25T05:34:24.366Z,22.00
2018-07-25T05:36:51.805Z,23.00
2018-07-25T05:39:19.290Z,23.00
2018-07-25T05:41:46.721Z,22.20
2018-07-25T05:44:14.179Z,21.20
2018-07-25T05:46:41.549Z,19.60
2018-07-25T05:49:09.085Z,23.20
2018-07-25T05:51:36.561Z,23.00
2018-07-25T05:54:04.005Z,21.20
2018-07-25T05:56:31.494Z,23.60
2018-07-25T05:58:58.905Z,22.00
2018-07-25T06:01:26.382Z,23.80
2018-07-25T06:03:53.853Z,22.60
2018-07-25T06:06:21.298Z,23.80
2018-07-25T06:08:48.757Z,21.40
2018-07-25T06:11:16.205Z,24.20
2018-07-25T06:13:43.675Z,21.40
2018-07-25T06:16:11.118Z,24.20
2018-07-25T06:18:38.605Z,21.20
2018-07-25T06:21:06.052Z,21.80
2018-07-25T06:23:33.505Z,24.00
2018-07-25T06:26:01.002Z,22.20
2018-07-25T06:28:28.419Z,21.80
2018-07-25T06:30:55.881Z,21.80
2018-07-25T06:33:23.342Z,23.20
2018-07-25T06:35:50.807Z,21.40
2018-07-25T06:38:18.241Z,17.80
2018-07-25T06:40:45.685Z,21.00
2018-07-25T06:43:13.191Z,22.60
2018-07-25T06:45:40.618Z,22.00
2018-07-25T06:48:08.094Z,22.60
2018-07-25T06:50:35.556Z,23.00
2018-07-25T06:53:03.017Z,23.40
2018-07-25T06:55:30.469Z,22.60
2018-07-25T06:57:57.906Z,22.60
2018-07-25T07:00:25.405Z,21.20
2018-07-25T07:02:52.820Z,24.00
2018-07-25T07:05:20.310Z,23.00
2018-07-25T07:07:47.853Z,24.20
2018-07-25T07:10:15.442Z,23.60
2018-07-25T07:12:42.866Z,23.80
2018-07-25T07:15:10.414Z,23.00
2018-07-25T07:17:38.086Z,24.20
2018-07-25T07:20:05.655Z,23.00
2018-07-25T07:22:33.114Z,24.00
2018-07-25T07:25:00.533Z,22.80
2018-07-25T07:27:28.007Z,22.80
2018-07-25T07:29:55.455Z,21.20
2018-07-25T07:32:22.961Z,23.00
2018-07-25T07:34:50.396Z,22.80
2018-07-25T07:37:17.878Z,24.00
2018-07-25T07:39:45.298Z,21.60
2018-07-25T07:42:12.755Z,21.40
2018-07-25T07:44:40.205Z,22.00
2018-07-25T07:47:08.686Z,23.60
2018-07-25T07:49:36.197Z,23.00
2018-07-25T07:52:03.649Z,22.20
2018-07-25T07:54:31.071Z,23.80
2018-07-25T07:56:58.516Z,22.80
2018-07-25T07:59:26.048Z,22.00
2018-07-25T08:01:53.439Z,21.60
2018-07-25T08:04:20.893Z,20.20
2018-07-25T08:06:48.341Z,21.60
2018-07-25T08:09:15.785Z,23.00
2018-07-25T08:11:43.259Z,22.00
2018-07-25T08:14:10.697Z,24.00
2018-07-25T08:16:38.153Z,22.20
2018-07-25T08:19:05.909Z,21.00
2018-07-25T08:21:33.386Z,19.40
2018-07-25T08:24:01.019Z,21.00
2018-07-25T08:26:28.489Z,20.40
2018-07-25T08:28:56.019Z,19.60
2018-07-25T08:31:23.577Z,19.60
2018-07-25T08:33:50.985Z,19.80
2018-07-25T08:36:18.486Z,18.80
2018-07-25T08:38:46.015Z,23.20
2018-07-25T08:41:13.470Z,19.80
2018-07-25T08:43:40.934Z,22.20
2018-07-25T08:46:19.219Z,19.60
2018-07-25T08:48:52.279Z,21.00
2018-07-25T08:51:19.761Z,19.80
2018-07-25T08:53:48.278Z,20.20
2018-07-25T08:56:15.710Z,21.80
2018-07-25T08:58:43.158Z,21.00
2018-07-25T09:01:12.269Z,22.40
2018-07-25T09:03:39.713Z,20.60
2018-07-25T09:06:07.249Z,20.00
2018-07-25T09:08:34.693Z,19.40
2018-07-25T09:11:02.079Z,22.60
2018-07-25T09:13:29.626Z,24.00
2018-07-25T09:15:57.006Z,21.60
2018-07-25T09:18:24.429Z,20.40
2018-07-25T09:20:51.941Z,24.00
2018-07-25T09:23:19.434Z,24.00
2018-07-25T09:25:46.922Z,23.20
2018-07-25T09:28:14.272Z,24.00
2018-07-25T09:30:41.771Z,20.20
2018-07-25T09:33:09.209Z,24.00
2018-07-25T09:35:36.655Z,23.00
2018-07-25T09:38:04.294Z,23.60
2018-07-25T09:40:31.777Z,21.20
2018-07-25T09:42:59.253Z,23.60
2018-07-25T09:45:26.725Z,19.60
2018-07-25T09:47:54.210Z,21.00
2018-07-25T09:50:21.643Z,23.00
2018-07-25T09:52:49.119Z,21.20
2018-07-25T09:55:16.539Z,21.00
2018-07-25T09:57:43.989Z,20.80
2018-07-25T10:00:11.478Z,21.80
2018-07-25T10:02:38.925Z,18.60
2018-07-25T10:05:06.405Z,20.00
2018-07-25T10:07:33.845Z,18.60
2018-07-25T10:10:01.287Z,19.40
2018-07-25T10:12:28.778Z,18.80
2018-07-25T10:14:56.227Z,20.60
2018-07-25T10:17:23.762Z,19.20
2018-07-25T10:19:51.322Z,19.20
2018-07-25T10:22:18.821Z,22.00
2018-07-25T10:24:46.214Z,20.60
2018-07-25T10:27:13.658Z,18.40
2018-07-25T10:29:41.246Z,20.00
2018-07-25T10:32:08.799Z,19.80
2018-07-25T10:34:36.261Z,18.80
2018-07-25T10:37:03.701Z,19.20
2018-07-25T10:39:31.218Z,19.20
2018-07-25T10:41:58.662Z,19.60
2018-07-25T10:44:26.077Z,18.40
2018-07-25T10:46:53.430Z,18.80
2018-07-25T10:49:23.790Z,19.00
2018-07-25T10:51:51.381Z,18.80
2018-07-25T10:54:18.794Z,18.00
2018-07-25T10:56:46.309Z,19.40
2018-07-25T10:59:13.710Z,18.20
2018-07-25T11:01:41.144Z,19.20
2018-07-25T11:04:08.618Z,17.00
2018-07-25T11:06:36.057Z,18.00
2018-07-25T11:09:05.170Z,16.20
2018-07-25T11:11:32.630Z,17.60
2018-07-25T11:14:00.225Z,17.80
2018-07-25T11:16:27.849Z,19.40
2018-07-25T11:18:55.218Z,17.20
2018-07-25T11:21:22.768Z,16.80
2018-07-25T11:23:50.325Z,17.00
2018-07-25T11:26:17.763Z,18.60
2018-07-25T11:28:45.226Z,18.40
2018-07-25T11:31:12.698Z,15.40
2018-07-25T11:33:40.187Z,16.60
2018-07-25T11:36:07.581Z,17.20
2018-07-25T11:38:35.071Z,18.40
2018-07-25T11:41:02.537Z,16.20
2018-07-25T11:43:29.985Z,18.00
2018-07-25T11:45:57.466Z,17.40
2018-07-25T11:48:24.874Z,17.40
2018-07-25T11:50:52.370Z,15.60
2018-07-25T11:53:19.808Z,16.20
2018-07-25T11:55:47.348Z,13.20
2018-07-25T11:58:14.747Z,15.40
2018-07-25T12:00:42.156Z,15.20
2018-07-25T12:03:09.652Z,15.00
2018-07-25T12:05:37.153Z,15.00
2018-07-25T12:08:04.847Z,16.00
2018-07-25T12:10:32.329Z,16.40
2018-07-25T12:12:59.811Z,13.80
2018-07-25T12:15:27.350Z,16.80
2018-07-25T12:17:54.934Z,16.00
2018-07-25T12:20:22.383Z,16.00
2018-07-25T12:22:49.834Z,15.00
2018-07-25T12:25:17.253Z,14.80
2018-07-25T12:27:45.763Z,15.60
2018-07-25T12:30:13.198Z,15.60
2018-07-25T12:32:40.725Z,13.40
2018-07-25T12:35:08.131Z,14.80
2018-07-25T12:37:36.491Z,14.80
2018-07-25T12:40:03.971Z,16.00
2018-07-25T12:42:31.650Z,12.00
2018-07-25T12:44:59.186Z,14.20
2018-07-25T12:47:26.591Z,15.00
2018-07-25T12:49:54.103Z,15.00
2018-07-25T12:52:21.520Z,14.40
2018-07-25T12:54:49.004Z,14.20
2018-07-25T12:57:16.460Z,12.40
2018-07-25T12:59:43.890Z,15.80
2018-07-25T13:02:11.453Z,14.20
2018-07-25T13:04:38.945Z,13.60
2018-07-25T13:07:06.476Z,15.60
2018-07-25T13:09:33.943Z,14.80
2018-07-25T13:12:01.420Z,13.00
2018-07-25T13:14:28.846Z,14.60
2018-07-25T13:16:56.322Z,14.00
2018-07-25T13:19:23.752Z,14.60
2018-07-25T13:21:51.263Z,14.60
2018-07-25T13:24:18.677Z,14.00
2018-07-25T13:26:46.143Z,14.60
2018-07-25T13:29:13.618Z,15.20
2018-07-25T13:31:41.046Z,14.40
2018-07-25T13:34:08.509Z,13.80
2018-07-25T13:36:36.421Z,14.00
2018-07-25T13:39:06.427Z,13.00
2018-07-25T13:41:34.087Z,14.40
2018-07-25T13:44:01.634Z,14.00
2018-07-25T13:46:28.941Z,13.80
2018-07-25T13:48:56.278Z,15.80
2018-07-25T13:51:23.817Z,15.00
2018-07-25T13:53:51.233Z,15.00
2018-07-25T13:56:18.718Z,14.20
2018-07-25T13:58:46.174Z,14.60
2018-07-25T14:01:13.620Z,14.20
2018-07-25T14:03:41.063Z,14.20
2018-07-25T14:06:08.539Z,15.00
2018-07-25T14:08:35.990Z,14.20
2018-07-25T14:11:03.446Z,14.80
2018-07-25T14:13:30.889Z,12.40
2018-07-25T14:15:58.392Z,13.40
2018-07-25T14:18:25.813Z,14.20
2018-07-25T14:20:54.265Z,13.20
2018-07-25T14:23:21.747Z,10.00
2018-07-25T14:25:49.201Z,14.40
2018-07-25T14:28:16.677Z,15.00
2018-07-25T14:30:44.140Z,13.20
2018-07-25T14:33:12.655Z,13.00
2018-07-25T14:35:40.058Z,13.20
2018-07-25T14:38:07.535Z,14.20
2018-07-25T14:40:34.979Z,13.80
2018-07-25T14:43:03.310Z,14.40
2018-07-25T14:45:30.747Z,15.20
2018-07-25T14:47:58.176Z,13.00
2018-07-25T14:50:25.650Z,10.00
2018-07-25T14:52:53.134Z,13.40
2018-07-25T14:55:20.566Z,13.60
2018-07-25T14:57:48.014Z,12.20
2018-07-25T15:00:16.074Z,14.80
2018-07-25T15:02:43.523Z,14.60
2018-07-25T15:05:10.987Z,13.00
2018-07-25T15:07:38.437Z,13.80
2018-07-25T15:10:06.310Z,12.80
2018-07-25T15:12:33.792Z,12.20
2018-07-25T15:15:03.225Z,14.00
2018-07-25T15:17:30.737Z,12.00
2018-07-25T15:19:58.169Z,12.60
2018-07-25T15:22:25.646Z,13.60
2018-07-25T15:24:53.077Z,11.00
2018-07-25T15:27:20.446Z,14.20
2018-07-25T15:29:47.807Z,13.20
2018-07-25T15:32:15.474Z,12.00
2018-07-25T15:34:42.918Z,12.40
2018-07-25T15:37:10.387Z,12.80
2018-07-25T15:39:38.534Z,10.80
2018-07-25T15:42:06.130Z,12.80
2018-07-25T15:44:33.612Z,12.80
2018-07-25T15:47:01.143Z,12.60
2018-07-25T15:49:28.476Z,13.80
2018-07-25T15:51:55.941Z,11.20
2018-07-25T15:54:23.401Z,12.60
2018-07-25T15:56:50.865Z,11.60
2018-07-25T15:59:18.301Z,12.00
2018-07-25T16:01:45.817Z,13.40
2018-07-25T16:04:13.255Z,9.00
2018-07-25T16:06:40.714Z,12.80
2018-07-25T16:09:09.336Z,12.20
2018-07-25T16:11:37.117Z,10.00
2018-07-25T16:14:05.141Z,13.00
2018-07-25T16:16:32.581Z,12.20
2018-07-25T16:19:00.005Z,12.00
2018-07-25T16:21:27.461Z,12.80
2018-07-25T16:23:54.944Z,10.40
2018-07-25T16:26:22.386Z,12.00
2018-07-25T16:28:49.905Z,10.40
2018-07-25T16:31:17.364Z,13.00
2018-07-25T16:33:44.867Z,13.40
2018-07-25T16:36:12.364Z,11.60
2018-07-25T16:38:39.938Z,13.20
2018-07-25T16:41:07.354Z,13.60
2018-07-25T16:43:34.880Z,14.00
2018-07-25T16:46:02.251Z,12.20
2018-07-25T16:48:30.091Z,12.40
2018-07-25T16:50:57.687Z,10.00
2018-07-25T16:53:25.081Z,13.60
2018-07-25T16:55:52.573Z,11.60
2018-07-25T16:58:20.014Z,12.60
2018-07-25T17:00:47.412Z,10.80
2018-07-25T17:03:14.844Z,12.00
2018-07-25T17:05:42.338Z,10.40
2018-07-25T17:08:09.841Z,10.40
2018-07-25T17:10:37.263Z,11.20
2018-07-25T17:13:04.686Z,11.20
2018-07-25T17:15:32.157Z,10.80
2018-07-25T17:17:59.625Z,12.00
2018-07-25T17:20:27.126Z,11.80
2018-07-25T17:22:54.524Z,13.00
2018-07-25T17:25:22.006Z,10.00
2018-07-25T17:27:49.464Z,10.00
2018-07-25T17:30:16.888Z,9.60
2018-07-25T17:32:44.347Z,10.20
2018-07-25T17:35:11.869Z,12.00
2018-07-25T17:37:39.269Z,11.00
2018-07-25T17:40:06.725Z,9.80
2018-07-25T17:42:34.178Z,10.00
2018-07-25T17:45:01.646Z,9.60
2018-07-25T17:47:29.118Z,12.00
2018-07-25T17:49:56.568Z,10.80
2018-07-25T17:52:24.025Z,11.80
2018-07-25T17:54:51.457Z,9.20
2018-07-25T17:57:18.934Z,11.60
2018-07-25T17:59:46.434Z,11.00
2018-07-25T18:02:13.830Z,10.80
2018-07-25T18:04:41.291Z,10.20
2018-07-25T18:07:08.774Z,10.00
2018-07-25T18:09:36.518Z,10.00
2018-07-25T18:12:03.880Z,10.80
2018-07-25T18:14:31.349Z,11.20
2018-07-25T18:16:58.769Z,11.20
2018-07-25T18:19:26.246Z,9.20
2018-07-25T18:21:53.712Z,9.60
2018-07-25T18:24:21.145Z,10.00
2018-07-25T18:26:48.627Z,11.20
2018-07-25T18:29:17.098Z,10.60
2018-07-25T18:31:56.621Z,10.40
2018-07-25T18:34:36.149Z,14.00
2018-07-25T18:37:03.717Z,12.20
2018-07-25T18:39:31.213Z,9.40
2018-07-25T18:41:58.653Z,12.40
2018-07-25T18:44:26.089Z,11.00
2018-07-25T18:46:53.576Z,9.00
2018-07-25T18:49:21.041Z,13.00
2018-07-25T18:51:48.569Z,10.80
2018-07-25T18:54:16.054Z,12.00
2018-07-25T18:56:43.473Z,11.40
2018-07-25T18:59:10.882Z,11.00
2018-07-25T19:01:38.324Z,11.20
2018-07-25T19:04:05.782Z,10.20
2018-07-25T19:06:33.217Z,12.80
2018-07-25T19:09:00.686Z,9.80
2018-07-25T19:11:28.157Z,10.80
2018-07-25T19:13:55.570Z,12.80
2018-07-25T19:16:23.109Z,13.00
2018-07-25T19:18:51.159Z,9.40
2018-07-25T19:21:18.622Z,12.80
2018-07-25T19:23:46.069Z,10.00
2018-07-25T19:26:13.506Z,11.20
2018-07-25T19:28:40.937Z,13.00
2018-07-25T19:31:08.453Z,12.40
2018-07-25T19:33:35.905Z,11.80
2018-07-25T19:36:03.330Z,11.20
2018-07-25T19:38:30.770Z,13.20
2018-07-25T19:40:58.248Z,13.60
2018-07-25T19:43:25.751Z,9.80
2018-07-25T19:45:53.207Z,11.20
2018-07-25T19:48:21.639Z,12.80
2018-07-25T19:50:49.991Z,10.60
2018-07-25T19:53:17.365Z,10.20
2018-07-25T19:55:44.825Z,10.00
2018-07-25T19:58:12.305Z,10.20
2018-07-25T20:00:39.732Z,10.60
2018-07-25T20:03:07.197Z,10.00
2018-07-25T20:05:34.713Z,11.20
2018-07-25T20:08:02.102Z,9.80
2018-07-25T20:10:29.573Z,10.20
2018-07-25T20:12:57.012Z,11.20
2018-07-25T20:15:24.513Z,10.00
2018-07-25T20:17:51.936Z,10.00
2018-07-25T20:20:19.412Z,12.60
2018-07-25T20:22:46.864Z,10.20
2018-07-25T20:25:14.226Z,9.00
2018-07-25T20:27:41.676Z,11.20
2018-07-25T20:30:09.106Z,13.20
2018-07-25T20:32:36.581Z,12.00
2018-07-25T20:35:04.418Z,14.60
2018-07-25T20:37:31.906Z,15.00
2018-07-25T20:39:59.356Z,14.00
2018-07-25T20:42:26.866Z,13.40
2018-07-25T20:44:54.273Z,14.00
2018-07-25T20:47:21.719Z,12.20
2018-07-25T20:49:49.189Z,14.00
2018-07-25T20:52:16.627Z,13.80
2018-07-25T20:54:44.105Z,12.80
2018-07-25T20:57:11.557Z,13.60
2018-07-25T20:59:39.008Z,15.60
2018-07-25T21:02:06.581Z,13.00
2018-07-25T21:04:33.929Z,15.80
2018-07-25T21:07:01.402Z,14.20
2018-07-25T21:09:28.831Z,13.00
2018-07-25T21:11:56.322Z,13.80
2018-07-25T21:14:23.767Z,14.00
2018-07-25T21:16:51.518Z,14.20
2018-07-25T21:19:18.895Z,14.00
2018-07-25T21:21:46.415Z,13.00
2018-07-25T21:24:13.849Z,13.40
2018-07-25T21:26:42.257Z,13.60
2018-07-25T21:29:09.731Z,13.00
2018-07-25T21:31:37.210Z,14.60
2018-07-25T21:34:04.646Z,13.80
2018-07-25T21:36:32.110Z,13.00
2018-07-25T21:38:59.549Z,13.60
2018-07-25T21:41:27.041Z,13.20
2018-07-25T21:43:54.477Z,13.60
2018-07-25T21:46:21.933Z,13.80
2018-07-25T21:48:49.393Z,11.80
2018-07-25T21:51:16.890Z,11.60
2018-07-25T21:53:44.293Z,13.00
2018-07-25T21:56:11.767Z,12.40
2018-07-25T21:58:39.229Z,12.00
2018-07-25T22:01:06.703Z,12.80
2018-07-25T22:03:34.153Z,12.80
2018-07-25T22:06:01.601Z,12.40
2018-07-25T22:08:29.041Z,14.00
2018-07-25T22:10:56.520Z,14.20
2018-07-25T22:13:24.006Z,12.60
2018-07-25T22:15:51.394Z,12.40
2018-07-25T22:18:18.894Z,13.60
2018-07-25T22:20:46.330Z,12.00
2018-07-25T22:23:13.809Z,14.40
2018-07-25T22:25:41.258Z,14.40
2018-07-25T22:28:08.709Z,13.60
2018-07-25T22:30:36.182Z,13.00
2018-07-25T22:33:03.673Z,14.60
2018-07-25T22:35:31.078Z,18.60
2018-07-25T22:37:58.542Z,15.20
2018-07-25T22:40:25.986Z,15.60
2018-07-25T22:42:53.533Z,18.20
2018-07-25T22:45:20.926Z,14.60
2018-07-25T22:47:48.370Z,13.40
2018-07-25T22:50:15.817Z,18.00
2018-07-25T22:52:43.285Z,15.20
2018-07-25T22:55:10.758Z,15.80
2018-07-25T22:57:38.180Z,15.00
2018-07-25T23:00:05.755Z,16.60
2018-07-25T23:02:33.097Z,15.20
2018-07-25T23:05:00.573Z,18.80
2018-07-25T23:07:28.022Z,17.00
2018-07-25T23:09:55.505Z,18.80
2018-07-25T23:12:22.959Z,18.00
2018-07-25T23:14:50.383Z,17.00
2018-07-25T23:17:17.845Z,18.00
2018-07-25T23:19:45.350Z,19.00
2018-07-25T23:22:13.789Z,17.80
2018-07-25T23:24:41.145Z,19.20
2018-07-25T23:27:08.623Z,17.80
2018-07-25T23:29:36.150Z,17.00
2018-07-25T23:32:03.700Z,17.20
2018-07-25T23:34:31.166Z,18.00
2018-07-25T23:36:58.545Z,17.20
2018-07-25T23:39:26.006Z,17.80
2018-07-25T23:41:53.609Z,18.60
2018-07-25T23:44:21.112Z,16.40
2018-07-25T23:46:48.622Z,18.00
2018-07-25T23:49:16.020Z,18.40
2018-07-25T23:51:44.150Z,19.20
2018-07-25T23:54:11.557Z,17.20
2018-07-25T23:56:39.055Z,17.20
2018-07-25T23:59:06.454Z,17.00
